sensor_id;sensor_type;location;lat;lon;timestamp;P1;durP1;ratioP1;P2;durP2;ratioP2
78752;SDS011;68072;51.688;7.842;2023-03-23T00:01:04;3.60;;;2.17;;
78752;SDS011;68072;51.688;7.842;2023-03-23T00:03:30;2.72;;;2.28;;
78752;SDS011;68072;51.688;7.842;2023-03-23T00:05:57;7.85;;;2.60;;
78752;SDS011;68072;51.688;7.842;2023-03-23T00:08:29;6.47;;;2.58;;
78752;SDS011;68072;51.688;7.842;2023-03-23T00:13:26;5.88;;;2.72;;
78752;SDS011;68072;51.688;7.842;2023-03-23T00:15:53;5.68;;;1.80;;
78752;SDS011;68072;51.688;7.842;2023-03-23T00:18:19;3.15;;;2.08;;
78752;SDS011;68072;51.688;7.842;2023-03-23T00:20:55;8.00;;;2.38;;
78752;SDS011;68072;51.688;7.842;2023-03-23T00:23:24;3.78;;;2.42;;
78752;SDS011;68072;51.688;7.842;2023-03-23T00:25:54;2.40;;;1.77;;
78752;SDS011;68072;51.688;7.842;2023-03-23T00:28:23;3.75;;;2.30;;
78752;SDS011;68072;51.688;7.842;2023-03-23T00:31:00;4.13;;;2.38;;
78752;SDS011;68072;51.688;7.842;2023-03-23T00:33:27;3.10;;;1.55;;
78752;SDS011;68072;51.688;7.842;2023-03-23T00:35:54;4.57;;;2.28;;
78752;SDS011;68072;51.688;7.842;2023-03-23T00:38:21;3.75;;;2.30;;
78752;SDS011;68072;51.688;7.842;2023-03-23T00:40:47;2.67;;;1.65;;
78752;SDS011;68072;51.688;7.842;2023-03-23T00:43:14;3.45;;;2.22;;
78752;SDS011;68072;51.688;7.842;2023-03-23T00:45:43;3.95;;;2.05;;
78752;SDS011;68072;51.688;7.842;2023-03-23T00:50:37;3.35;;;1.95;;
78752;SDS011;68072;51.688;7.842;2023-03-23T00:53:03;4.25;;;2.05;;
78752;SDS011;68072;51.688;7.842;2023-03-23T00:55:28;4.10;;;1.90;;
78752;SDS011;68072;51.688;7.842;2023-03-23T00:57:55;3.42;;;2.00;;
78752;SDS011;68072;51.688;7.842;2023-03-23T01:00:21;5.28;;;2.00;;
78752;SDS011;68072;51.688;7.842;2023-03-23T01:02:47;2.85;;;2.20;;
78752;SDS011;68072;51.688;7.842;2023-03-23T01:05:13;2.50;;;1.73;;
78752;SDS011;68072;51.688;7.842;2023-03-23T01:07:39;1.85;;;1.52;;
78752;SDS011;68072;51.688;7.842;2023-03-23T01:10:05;1.95;;;1.83;;
78752;SDS011;68072;51.688;7.842;2023-03-23T01:12:31;1.98;;;1.80;;
78752;SDS011;68072;51.688;7.842;2023-03-23T01:14:56;5.40;;;1.90;;
78752;SDS011;68072;51.688;7.842;2023-03-23T01:17:22;2.53;;;1.67;;
78752;SDS011;68072;51.688;7.842;2023-03-23T01:19:47;2.30;;;1.60;;
78752;SDS011;68072;51.688;7.842;2023-03-23T01:22:13;5.55;;;1.90;;
78752;SDS011;68072;51.688;7.842;2023-03-23T01:24:39;2.42;;;1.70;;
78752;SDS011;68072;51.688;7.842;2023-03-23T01:27:05;2.65;;;1.70;;
78752;SDS011;68072;51.688;7.842;2023-03-23T01:31:57;2.33;;;1.73;;
78752;SDS011;68072;51.688;7.842;2023-03-23T01:34:23;1.92;;;1.75;;
78752;SDS011;68072;51.688;7.842;2023-03-23T01:36:49;3.67;;;1.80;;
78752;SDS011;68072;51.688;7.842;2023-03-23T01:39:14;2.30;;;1.63;;
78752;SDS011;68072;51.688;7.842;2023-03-23T01:41:39;2.25;;;1.60;;
78752;SDS011;68072;51.688;7.842;2023-03-23T01:44:07;3.83;;;1.90;;
78752;SDS011;68072;51.688;7.842;2023-03-23T01:46:52;2.00;;;1.80;;
78752;SDS011;68072;51.688;7.842;2023-03-23T01:49:41;5.03;;;2.15;;
78752;SDS011;68072;51.688;7.842;2023-03-23T01:52:11;4.07;;;2.25;;
78752;SDS011;68072;51.688;7.842;2023-03-23T01:54:42;5.18;;;1.90;;
78752;SDS011;68072;51.688;7.842;2023-03-23T01:57:11;2.35;;;1.60;;
78752;SDS011;68072;51.688;7.842;2023-03-23T01:59:38;2.55;;;1.40;;
78752;SDS011;68072;51.688;7.842;2023-03-23T02:02:07;3.00;;;1.85;;
78752;SDS011;68072;51.688;7.842;2023-03-23T02:04:35;1.90;;;1.80;;
78752;SDS011;68072;51.688;7.842;2023-03-23T02:07:02;4.30;;;2.10;;
78752;SDS011;68072;51.688;7.842;2023-03-23T02:09:28;2.17;;;1.85;;
78752;SDS011;68072;51.688;7.842;2023-03-23T02:11:54;2.70;;;1.60;;
78752;SDS011;68072;51.688;7.842;2023-03-23T02:14:20;3.47;;;1.58;;
78752;SDS011;68072;51.688;7.842;2023-03-23T02:16:50;2.05;;;1.85;;
78752;SDS011;68072;51.688;7.842;2023-03-23T02:35:47;1.67;;;1.58;;
78752;SDS011;68072;51.688;7.842;2023-03-23T02:38:21;2.05;;;1.58;;
78752;SDS011;68072;51.688;7.842;2023-03-23T02:41:16;1.50;;;1.40;;
78752;SDS011;68072;51.688;7.842;2023-03-23T02:43:44;1.40;;;1.30;;
78752;SDS011;68072;51.688;7.842;2023-03-23T02:46:10;2.25;;;1.60;;
78752;SDS011;68072;51.688;7.842;2023-03-23T02:48:37;2.70;;;1.58;;
78752;SDS011;68072;51.688;7.842;2023-03-23T02:51:03;1.90;;;1.48;;
78752;SDS011;68072;51.688;7.842;2023-03-23T02:53:29;1.70;;;1.60;;
78752;SDS011;68072;51.688;7.842;2023-03-23T02:55:55;2.50;;;1.50;;
78752;SDS011;68072;51.688;7.842;2023-03-23T02:58:22;5.03;;;1.90;;
78752;SDS011;68072;51.688;7.842;2023-03-23T03:00:48;2.00;;;1.90;;
78752;SDS011;68072;51.688;7.842;2023-03-23T03:03:15;1.70;;;1.60;;
78752;SDS011;68072;51.688;7.842;2023-03-23T03:08:52;3.45;;;1.83;;
78752;SDS011;68072;51.688;7.842;2023-03-23T03:11:24;1.90;;;1.77;;
78752;SDS011;68072;51.688;7.842;2023-03-23T03:13:59;1.88;;;1.40;;
78752;SDS011;68072;51.688;7.842;2023-03-23T03:16:33;1.55;;;1.45;;
78752;SDS011;68072;51.688;7.842;2023-03-23T03:21:42;3.22;;;2.00;;
78752;SDS011;68072;51.688;7.842;2023-03-23T03:24:08;3.05;;;1.50;;
78752;SDS011;68072;51.688;7.842;2023-03-23T03:26:36;1.85;;;1.70;;
78752;SDS011;68072;51.688;7.842;2023-03-23T03:29:04;4.78;;;2.00;;
78752;SDS011;68072;51.688;7.842;2023-03-23T03:33:57;1.65;;;1.48;;
78752;SDS011;68072;51.688;7.842;2023-03-23T03:36:26;2.17;;;1.70;;
78752;SDS011;68072;51.688;7.842;2023-03-23T03:38:53;1.85;;;1.58;;
78752;SDS011;68072;51.688;7.842;2023-03-23T03:41:22;2.25;;;1.60;;
78752;SDS011;68072;51.688;7.842;2023-03-23T03:43:47;1.58;;;1.48;;
78752;SDS011;68072;51.688;7.842;2023-03-23T03:46:13;1.70;;;1.60;;
78752;SDS011;68072;51.688;7.842;2023-03-23T03:48:38;1.90;;;1.70;;
78752;SDS011;68072;51.688;7.842;2023-03-23T03:51:03;1.48;;;1.38;;
78752;SDS011;68072;51.688;7.842;2023-03-23T03:53:29;1.55;;;1.27;;
78752;SDS011;68072;51.688;7.842;2023-03-23T03:55:55;1.58;;;1.38;;
78752;SDS011;68072;51.688;7.842;2023-03-23T03:58:22;2.13;;;1.58;;
78752;SDS011;68072;51.688;7.842;2023-03-23T04:00:48;1.75;;;1.65;;
78752;SDS011;68072;51.688;7.842;2023-03-23T04:05:40;3.50;;;1.67;;
78752;SDS011;68072;51.688;7.842;2023-03-23T04:08:06;2.28;;;1.42;;
78752;SDS011;68072;51.688;7.842;2023-03-23T04:10:32;1.60;;;1.50;;
78752;SDS011;68072;51.688;7.842;2023-03-23T04:12:58;1.60;;;1.50;;
78752;SDS011;68072;51.688;7.842;2023-03-23T04:15:24;2.05;;;1.67;;
78752;SDS011;68072;51.688;7.842;2023-03-23T04:17:50;2.42;;;1.60;;
78752;SDS011;68072;51.688;7.842;2023-03-23T04:20:15;3.78;;;1.65;;
78752;SDS011;68072;51.688;7.842;2023-03-23T04:22:44;2.00;;;1.67;;
78752;SDS011;68072;51.688;7.842;2023-03-23T04:25:14;3.22;;;1.88;;
78752;SDS011;68072;51.688;7.842;2023-03-23T04:27:40;1.52;;;1.42;;
78752;SDS011;68072;51.688;7.842;2023-03-23T04:30:11;3.08;;;1.58;;
78752;SDS011;68072;51.688;7.842;2023-03-23T04:32:38;1.27;;;1.10;;
78752;SDS011;68072;51.688;7.842;2023-03-23T04:35:07;2.53;;;1.70;;
78752;SDS011;68072;51.688;7.842;2023-03-23T04:37:36;4.00;;;1.70;;
78752;SDS011;68072;51.688;7.842;2023-03-23T04:40:02;1.15;;;1.15;;
78752;SDS011;68072;51.688;7.842;2023-03-23T04:42:37;2.83;;;1.50;;
78752;SDS011;68072;51.688;7.842;2023-03-23T04:45:03;1.55;;;1.45;;
78752;SDS011;68072;51.688;7.842;2023-03-23T04:47:35;1.35;;;1.25;;
78752;SDS011;68072;51.688;7.842;2023-03-23T04:50:09;1.65;;;1.55;;
78752;SDS011;68072;51.688;7.842;2023-03-23T04:52:37;1.65;;;1.30;;
78752;SDS011;68072;51.688;7.842;2023-03-23T04:55:06;1.20;;;1.10;;
78752;SDS011;68072;51.688;7.842;2023-03-23T04:57:33;1.35;;;1.25;;
78752;SDS011;68072;51.688;7.842;2023-03-23T05:00:00;1.30;;;1.30;;
78752;SDS011;68072;51.688;7.842;2023-03-23T05:02:26;2.45;;;1.45;;
78752;SDS011;68072;51.688;7.842;2023-03-23T05:04:55;1.40;;;1.30;;
78752;SDS011;68072;51.688;7.842;2023-03-23T05:07:22;1.38;;;1.27;;
78752;SDS011;68072;51.688;7.842;2023-03-23T05:09:47;1.95;;;1.40;;
78752;SDS011;68072;51.688;7.842;2023-03-23T05:12:13;1.85;;;1.70;;
78752;SDS011;68072;51.688;7.842;2023-03-23T05:14:40;4.25;;;1.42;;
78752;SDS011;68072;51.688;7.842;2023-03-23T05:19:32;2.83;;;1.60;;
78752;SDS011;68072;51.688;7.842;2023-03-23T05:21:58;2.53;;;1.40;;
78752;SDS011;68072;51.688;7.842;2023-03-23T05:24:31;3.50;;;1.65;;
78752;SDS011;68072;51.688;7.842;2023-03-23T05:26:58;2.45;;;1.67;;
78752;SDS011;68072;51.688;7.842;2023-03-23T05:29:28;2.75;;;1.30;;
78752;SDS011;68072;51.688;7.842;2023-03-23T05:31:55;1.42;;;1.15;;
78752;SDS011;68072;51.688;7.842;2023-03-23T05:34:25;1.20;;;1.10;;
78752;SDS011;68072;51.688;7.842;2023-03-23T05:36:51;2.25;;;1.20;;
78752;SDS011;68072;51.688;7.842;2023-03-23T05:39:18;4.57;;;1.52;;
78752;SDS011;68072;51.688;7.842;2023-03-23T05:41:44;1.45;;;1.27;;
78752;SDS011;68072;51.688;7.842;2023-03-23T05:44:09;1.02;;;1.02;;
78752;SDS011;68072;51.688;7.842;2023-03-23T05:46:34;1.15;;;1.05;;
78752;SDS011;68072;51.688;7.842;2023-03-23T05:49:00;1.27;;;1.15;;
78752;SDS011;68072;51.688;7.842;2023-03-23T05:51:25;2.33;;;1.30;;
78752;SDS011;68072;51.688;7.842;2023-03-23T05:53:51;1.30;;;1.25;;
78752;SDS011;68072;51.688;7.842;2023-03-23T05:56:17;1.20;;;1.10;;
78752;SDS011;68072;51.688;7.842;2023-03-23T05:58:43;1.85;;;1.60;;
78752;SDS011;68072;51.688;7.842;2023-03-23T06:01:08;1.35;;;1.25;;
78752;SDS011;68072;51.688;7.842;2023-03-23T06:03:34;1.33;;;1.23;;
78752;SDS011;68072;51.688;7.842;2023-03-23T06:06:02;1.00;;;1.00;;
78752;SDS011;68072;51.688;7.842;2023-03-23T06:08:28;1.40;;;1.30;;
78752;SDS011;68072;51.688;7.842;2023-03-23T06:10:54;1.80;;;1.30;;
78752;SDS011;68072;51.688;7.842;2023-03-23T06:13:20;1.30;;;1.20;;
78752;SDS011;68072;51.688;7.842;2023-03-23T06:15:46;1.25;;;1.05;;
78752;SDS011;68072;51.688;7.842;2023-03-23T06:18:12;2.28;;;1.50;;
78752;SDS011;68072;51.688;7.842;2023-03-23T06:20:37;2.72;;;1.60;;
78752;SDS011;68072;51.688;7.842;2023-03-23T06:23:04;3.08;;;1.83;;
78752;SDS011;68072;51.688;7.842;2023-03-23T06:25:29;1.50;;;1.40;;
78752;SDS011;68072;51.688;7.842;2023-03-23T06:27:55;2.72;;;1.50;;
78752;SDS011;68072;51.688;7.842;2023-03-23T06:30:20;3.25;;;1.40;;
78752;SDS011;68072;51.688;7.842;2023-03-23T06:32:46;1.50;;;1.40;;
78752;SDS011;68072;51.688;7.842;2023-03-23T06:35:12;1.80;;;1.55;;
78752;SDS011;68072;51.688;7.842;2023-03-23T06:40:04;3.70;;;1.42;;
78752;SDS011;68072;51.688;7.842;2023-03-23T06:42:34;1.80;;;1.70;;
78752;SDS011;68072;51.688;7.842;2023-03-23T06:45:00;1.30;;;1.20;;
78752;SDS011;68072;51.688;7.842;2023-03-23T06:47:28;2.17;;;1.42;;
78752;SDS011;68072;51.688;7.842;2023-03-23T06:49:56;4.88;;;1.90;;
78752;SDS011;68072;51.688;7.842;2023-03-23T06:52:22;2.08;;;1.70;;
78752;SDS011;68072;51.688;7.842;2023-03-23T06:57:14;4.57;;;2.00;;
78752;SDS011;68072;51.688;7.842;2023-03-23T06:59:40;2.00;;;1.70;;
78752;SDS011;68072;51.688;7.842;2023-03-23T07:02:08;2.20;;;1.55;;
78752;SDS011;68072;51.688;7.842;2023-03-23T07:04:34;2.00;;;1.58;;
78752;SDS011;68072;51.688;7.842;2023-03-23T07:07:00;5.40;;;2.15;;
78752;SDS011;68072;51.688;7.842;2023-03-23T07:09:26;2.83;;;1.90;;
78752;SDS011;68072;51.688;7.842;2023-03-23T07:11:51;2.97;;;2.03;;
78752;SDS011;68072;51.688;7.842;2023-03-23T07:14:17;3.00;;;1.80;;
78752;SDS011;68072;51.688;7.842;2023-03-23T07:16:42;1.65;;;1.40;;
78752;SDS011;68072;51.688;7.842;2023-03-23T07:19:08;1.77;;;1.67;;
78752;SDS011;68072;51.688;7.842;2023-03-23T07:21:33;2.92;;;1.70;;
78752;SDS011;68072;51.688;7.842;2023-03-23T07:23:58;2.67;;;1.73;;
78752;SDS011;68072;51.688;7.842;2023-03-23T07:26:24;2.15;;;1.55;;
78752;SDS011;68072;51.688;7.842;2023-03-23T07:28:49;2.53;;;1.65;;
78752;SDS011;68072;51.688;7.842;2023-03-23T07:31:15;3.15;;;1.70;;
78752;SDS011;68072;51.688;7.842;2023-03-23T07:33:41;1.80;;;1.63;;
78752;SDS011;68072;51.688;7.842;2023-03-23T07:36:06;2.10;;;1.70;;
78752;SDS011;68072;51.688;7.842;2023-03-23T07:38:33;2.05;;;1.50;;
78752;SDS011;68072;51.688;7.842;2023-03-23T07:40:58;1.42;;;1.33;;
78752;SDS011;68072;51.688;7.842;2023-03-23T07:43:23;3.40;;;1.95;;
78752;SDS011;68072;51.688;7.842;2023-03-23T07:45:49;2.25;;;1.88;;
78752;SDS011;68072;51.688;7.842;2023-03-23T07:48:14;4.22;;;1.77;;
78752;SDS011;68072;51.688;7.842;2023-03-23T07:50:40;3.30;;;1.60;;
78752;SDS011;68072;51.688;7.842;2023-03-23T07:53:06;2.65;;;1.60;;
78752;SDS011;68072;51.688;7.842;2023-03-23T07:55:32;2.88;;;1.80;;
78752;SDS011;68072;51.688;7.842;2023-03-23T07:57:57;1.75;;;1.60;;
78752;SDS011;68072;51.688;7.842;2023-03-23T08:00:23;1.95;;;1.42;;
78752;SDS011;68072;51.688;7.842;2023-03-23T08:02:53;2.80;;;1.63;;
78752;SDS011;68072;51.688;7.842;2023-03-23T08:05:20;4.65;;;1.83;;
78752;SDS011;68072;51.688;7.842;2023-03-23T08:07:47;2.35;;;1.70;;
78752;SDS011;68072;51.688;7.842;2023-03-23T08:10:13;2.88;;;1.60;;
78752;SDS011;68072;51.688;7.842;2023-03-23T08:12:40;3.70;;;1.80;;
78752;SDS011;68072;51.688;7.842;2023-03-23T08:15:07;4.47;;;1.70;;
78752;SDS011;68072;51.688;7.842;2023-03-23T08:17:34;6.55;;;1.88;;
78752;SDS011;68072;51.688;7.842;2023-03-23T08:20:00;6.13;;;1.80;;
78752;SDS011;68072;51.688;7.842;2023-03-23T08:22:26;3.47;;;1.63;;
78752;SDS011;68072;51.688;7.842;2023-03-23T08:24:54;3.88;;;1.42;;
78752;SDS011;68072;51.688;7.842;2023-03-23T08:27:19;3.60;;;1.45;;
78752;SDS011;68072;51.688;7.842;2023-03-23T08:29:45;4.57;;;1.67;;
78752;SDS011;68072;51.688;7.842;2023-03-23T08:32:11;2.65;;;1.55;;
78752;SDS011;68072;51.688;7.842;2023-03-23T08:34:37;3.50;;;1.80;;
78752;SDS011;68072;51.688;7.842;2023-03-23T08:37:02;3.10;;;1.45;;
78752;SDS011;68072;51.688;7.842;2023-03-23T08:39:28;1.35;;;1.25;;
78752;SDS011;68072;51.688;7.842;2023-03-23T08:41:55;3.28;;;1.55;;
78752;SDS011;68072;51.688;7.842;2023-03-23T08:44:20;2.70;;;1.30;;
78752;SDS011;68072;51.688;7.842;2023-03-23T08:46:46;4.32;;;1.50;;
78752;SDS011;68072;51.688;7.842;2023-03-23T08:49:11;2.05;;;1.73;;
78752;SDS011;68072;51.688;7.842;2023-03-23T08:51:36;2.35;;;1.30;;
78752;SDS011;68072;51.688;7.842;2023-03-23T08:54:02;2.42;;;1.45;;
78752;SDS011;68072;51.688;7.842;2023-03-23T08:56:28;2.65;;;1.15;;
78752;SDS011;68072;51.688;7.842;2023-03-23T08:58:53;1.58;;;1.10;;
78752;SDS011;68072;51.688;7.842;2023-03-23T09:01:19;5.13;;;1.55;;
78752;SDS011;68072;51.688;7.842;2023-03-23T09:03:45;2.13;;;1.20;;
78752;SDS011;68072;51.688;7.842;2023-03-23T09:06:10;1.60;;;1.50;;
78752;SDS011;68072;51.688;7.842;2023-03-23T09:08:37;3.20;;;1.60;;
78752;SDS011;68072;51.688;7.842;2023-03-23T09:11:04;3.45;;;1.50;;
78752;SDS011;68072;51.688;7.842;2023-03-23T09:13:32;2.53;;;1.50;;
78752;SDS011;68072;51.688;7.842;2023-03-23T09:18:23;2.77;;;1.57;;
78752;SDS011;68072;51.688;7.842;2023-03-23T09:20:50;1.63;;;1.23;;
78752;SDS011;68072;51.688;7.842;2023-03-23T09:23:16;6.03;;;1.92;;
78752;SDS011;68072;51.688;7.842;2023-03-23T09:25:41;1.65;;;1.55;;
78752;SDS011;68072;51.688;7.842;2023-03-23T09:28:07;6.20;;;1.60;;
78752;SDS011;68072;51.688;7.842;2023-03-23T09:30:33;2.30;;;1.55;;
78752;SDS011;68072;51.688;7.842;2023-03-23T09:33:01;3.95;;;1.65;;
78752;SDS011;68072;51.688;7.842;2023-03-23T09:35:27;2.38;;;1.30;;
78752;SDS011;68072;51.688;7.842;2023-03-23T09:37:53;2.95;;;1.38;;
78752;SDS011;68072;51.688;7.842;2023-03-23T09:40:25;3.90;;;1.80;;
78752;SDS011;68072;51.688;7.842;2023-03-23T09:43:10;4.95;;;1.50;;
78752;SDS011;68072;51.688;7.842;2023-03-23T09:48:33;4.10;;;1.80;;
78752;SDS011;68072;51.688;7.842;2023-03-23T09:51:18;3.90;;;1.77;;
78752;SDS011;68072;51.688;7.842;2023-03-23T09:53:46;3.20;;;1.73;;
78752;SDS011;68072;51.688;7.842;2023-03-23T09:56:15;2.58;;;1.73;;
78752;SDS011;68072;51.688;7.842;2023-03-23T10:01:17;3.17;;;1.58;;
78752;SDS011;68072;51.688;7.842;2023-03-23T10:03:47;3.10;;;1.13;;
78752;SDS011;68072;51.688;7.842;2023-03-23T10:06:14;3.20;;;2.00;;
78752;SDS011;68072;51.688;7.842;2023-03-23T10:08:46;5.65;;;1.98;;
78752;SDS011;68072;51.688;7.842;2023-03-23T10:16:26;4.43;;;1.73;;
78752;SDS011;68072;51.688;7.842;2023-03-23T10:21:24;4.30;;;1.50;;
78752;SDS011;68072;51.688;7.842;2023-03-23T10:29:22;2.40;;;1.48;;
78752;SDS011;68072;51.688;7.842;2023-03-23T10:34:34;5.57;;;1.60;;
78752;SDS011;68072;51.688;7.842;2023-03-23T10:39:49;5.30;;;1.70;;
78752;SDS011;68072;51.688;7.842;2023-03-23T10:42:35;2.15;;;0.65;;
78752;SDS011;68072;51.688;7.842;2023-03-23T10:45:14;4.05;;;0.65;;
78752;SDS011;68072;51.688;7.842;2023-03-23T10:47:49;2.03;;;0.90;;
78752;SDS011;68072;51.688;7.842;2023-03-23T10:50:21;1.50;;;0.75;;
78752;SDS011;68072;51.688;7.842;2023-03-23T10:52:49;3.30;;;1.02;;
78752;SDS011;68072;51.688;7.842;2023-03-23T10:55:17;1.08;;;0.75;;
78752;SDS011;68072;51.688;7.842;2023-03-23T10:57:45;5.20;;;1.13;;
78752;SDS011;68072;51.688;7.842;2023-03-23T11:00:17;1.05;;;0.88;;
78752;SDS011;68072;51.688;7.842;2023-03-23T11:02:58;2.08;;;0.90;;
78752;SDS011;68072;51.688;7.842;2023-03-23T11:05:41;1.73;;;0.80;;
78752;SDS011;68072;51.688;7.842;2023-03-23T11:08:14;2.40;;;1.00;;
78752;SDS011;68072;51.688;7.842;2023-03-23T11:10:52;3.60;;;1.10;;
78752;SDS011;68072;51.688;7.842;2023-03-23T11:13:20;2.88;;;0.70;;
78752;SDS011;68072;51.688;7.842;2023-03-23T11:15:48;0.70;;;0.70;;
78752;SDS011;68072;51.688;7.842;2023-03-23T11:18:23;4.68;;;0.65;;
78752;SDS011;68072;51.688;7.842;2023-03-23T11:20:54;3.40;;;1.00;;
78752;SDS011;68072;51.688;7.842;2023-03-23T11:28:31;2.85;;;1.50;;
78752;SDS011;68072;51.688;7.842;2023-03-23T11:31:02;1.40;;;0.85;;
78752;SDS011;68072;51.688;7.842;2023-03-23T11:33:30;2.00;;;1.20;;
78752;SDS011;68072;51.688;7.842;2023-03-23T11:36:01;6.13;;;1.60;;
78752;SDS011;68072;51.688;7.842;2023-03-23T11:38:27;2.83;;;1.45;;
78752;SDS011;68072;51.688;7.842;2023-03-23T11:40:53;5.68;;;1.52;;
78752;SDS011;68072;51.688;7.842;2023-03-23T11:43:23;1.95;;;1.35;;
78752;SDS011;68072;51.688;7.842;2023-03-23T11:46:04;2.30;;;1.00;;
78752;SDS011;68072;51.688;7.842;2023-03-23T11:48:37;3.60;;;1.63;;
78752;SDS011;68072;51.688;7.842;2023-03-23T11:51:06;3.03;;;1.85;;
78752;SDS011;68072;51.688;7.842;2023-03-23T11:58:52;1.90;;;1.20;;
78752;SDS011;68072;51.688;7.842;2023-03-23T12:09:28;2.78;;;1.20;;
78752;SDS011;68072;51.688;7.842;2023-03-23T12:19:41;2.72;;;1.25;;
78752;SDS011;68072;51.688;7.842;2023-03-23T12:31:43;0.80;;;0.75;;
78752;SDS011;68072;51.688;7.842;2023-03-23T12:34:24;1.65;;;0.75;;
78752;SDS011;68072;51.688;7.842;2023-03-23T12:37:06;1.42;;;1.00;;
78752;SDS011;68072;51.688;7.842;2023-03-23T12:40:03;0.80;;;0.80;;
78752;SDS011;68072;51.688;7.842;2023-03-23T12:48:07;1.42;;;1.20;;
78752;SDS011;68072;51.688;7.842;2023-03-23T12:53:22;6.22;;;1.90;;
78752;SDS011;68072;51.688;7.842;2023-03-23T12:56:08;2.90;;;1.83;;
78752;SDS011;68072;51.688;7.842;2023-03-23T12:58:40;3.88;;;2.40;;
78752;SDS011;68072;51.688;7.842;2023-03-23T13:01:10;3.40;;;2.50;;
78752;SDS011;68072;51.688;7.842;2023-03-23T13:06:41;2.63;;;2.38;;
78752;SDS011;68072;51.688;7.842;2023-03-23T13:11:45;4.65;;;2.72;;
78752;SDS011;68072;51.688;7.842;2023-03-23T13:16:51;5.05;;;3.83;;
78752;SDS011;68072;51.688;7.842;2023-03-23T13:24:33;5.20;;;3.30;;
78752;SDS011;68072;51.688;7.842;2023-03-23T13:27:00;6.53;;;4.47;;
78752;SDS011;68072;51.688;7.842;2023-03-23T13:29:26;7.70;;;4.63;;
78752;SDS011;68072;51.688;7.842;2023-03-23T13:32:04;5.82;;;4.10;;
78752;SDS011;68072;51.688;7.842;2023-03-23T13:34:31;7.63;;;4.03;;
78752;SDS011;68072;51.688;7.842;2023-03-23T13:36:57;6.65;;;3.72;;
78752;SDS011;68072;51.688;7.842;2023-03-23T13:39:32;7.25;;;4.22;;
78752;SDS011;68072;51.688;7.842;2023-03-23T13:42:00;5.85;;;3.63;;
78752;SDS011;68072;51.688;7.842;2023-03-23T13:57:51;3.83;;;3.00;;
78752;SDS011;68072;51.688;7.842;2023-03-23T14:05:39;4.03;;;2.92;;
78752;SDS011;68072;51.688;7.842;2023-03-23T14:10:56;2.22;;;2.03;;
78752;SDS011;68072;51.688;7.842;2023-03-23T14:16:16;3.17;;;2.22;;
78752;SDS011;68072;51.688;7.842;2023-03-23T14:18:49;3.95;;;1.90;;
78752;SDS011;68072;51.688;7.842;2023-03-23T14:21:23;3.22;;;1.95;;
78752;SDS011;68072;51.688;7.842;2023-03-23T14:24:01;3.05;;;1.88;;
78752;SDS011;68072;51.688;7.842;2023-03-23T14:26:28;4.45;;;1.83;;
78752;SDS011;68072;51.688;7.842;2023-03-23T14:28:54;5.82;;;2.10;;
78752;SDS011;68072;51.688;7.842;2023-03-23T14:31:24;4.75;;;1.88;;
78752;SDS011;68072;51.688;7.842;2023-03-23T14:33:51;3.17;;;1.50;;
78752;SDS011;68072;51.688;7.842;2023-03-23T14:36:31;3.80;;;1.60;;
78752;SDS011;68072;51.688;7.842;2023-03-23T14:41:41;5.32;;;1.38;;
78752;SDS011;68072;51.688;7.842;2023-03-23T14:44:08;3.40;;;1.42;;
78752;SDS011;68072;51.688;7.842;2023-03-23T14:46:38;2.50;;;1.38;;
78752;SDS011;68072;51.688;7.842;2023-03-23T14:49:04;9.20;;;1.60;;
78752;SDS011;68072;51.688;7.842;2023-03-23T14:53:57;3.35;;;1.80;;
78752;SDS011;68072;51.688;7.842;2023-03-23T14:56:24;2.67;;;1.13;;
78752;SDS011;68072;51.688;7.842;2023-03-23T14:59:02;4.75;;;1.52;;
78752;SDS011;68072;51.688;7.842;2023-03-23T15:01:29;2.60;;;1.67;;
78752;SDS011;68072;51.688;7.842;2023-03-23T15:04:09;1.40;;;1.23;;
78752;SDS011;68072;51.688;7.842;2023-03-23T15:06:38;1.48;;;1.38;;
78752;SDS011;68072;51.688;7.842;2023-03-23T15:09:09;2.72;;;1.52;;
78752;SDS011;68072;51.688;7.842;2023-03-23T15:11:38;3.38;;;2.10;;
78752;SDS011;68072;51.688;7.842;2023-03-23T15:14:24;3.50;;;2.20;;
78752;SDS011;68072;51.688;7.842;2023-03-23T15:16:53;3.75;;;2.03;;
78752;SDS011;68072;51.688;7.842;2023-03-23T15:21:56;6.07;;;2.80;;
78752;SDS011;68072;51.688;7.842;2023-03-23T15:24:33;3.35;;;2.65;;
78752;SDS011;68072;51.688;7.842;2023-03-23T15:29:31;4.43;;;3.05;;
78752;SDS011;68072;51.688;7.842;2023-03-23T15:31:57;4.60;;;3.13;;
78752;SDS011;68072;51.688;7.842;2023-03-23T15:36:59;6.22;;;3.72;;
78752;SDS011;68072;51.688;7.842;2023-03-23T15:39:26;4.78;;;3.35;;
78752;SDS011;68072;51.688;7.842;2023-03-23T15:44:28;3.13;;;2.63;;
78752;SDS011;68072;51.688;7.842;2023-03-23T15:47:10;10.23;;;3.50;;
78752;SDS011;68072;51.688;7.842;2023-03-23T15:49:39;5.20;;;3.45;;
78752;SDS011;68072;51.688;7.842;2023-03-23T15:52:07;3.85;;;3.42;;
78752;SDS011;68072;51.688;7.842;2023-03-23T15:54:34;6.10;;;3.15;;
78752;SDS011;68072;51.688;7.842;2023-03-23T15:56:59;5.95;;;3.40;;
78752;SDS011;68072;51.688;7.842;2023-03-23T15:59:25;5.22;;;3.00;;
78752;SDS011;68072;51.688;7.842;2023-03-23T16:01:51;4.38;;;3.78;;
78752;SDS011;68072;51.688;7.842;2023-03-23T16:04:17;4.63;;;3.13;;
78752;SDS011;68072;51.688;7.842;2023-03-23T16:06:43;7.78;;;3.13;;
78752;SDS011;68072;51.688;7.842;2023-03-23T16:09:13;4.50;;;2.90;;
78752;SDS011;68072;51.688;7.842;2023-03-23T16:11:40;3.92;;;2.53;;
78752;SDS011;68072;51.688;7.842;2023-03-23T16:14:06;4.72;;;2.92;;
78752;SDS011;68072;51.688;7.842;2023-03-23T16:19:05;10.10;;;4.60;;
78752;SDS011;68072;51.688;7.842;2023-03-23T16:21:31;5.13;;;3.50;;
78752;SDS011;68072;51.688;7.842;2023-03-23T16:23:57;6.35;;;2.88;;
78752;SDS011;68072;51.688;7.842;2023-03-23T16:26:23;4.18;;;2.30;;
78752;SDS011;68072;51.688;7.842;2023-03-23T16:28:48;2.25;;;1.98;;
78752;SDS011;68072;51.688;7.842;2023-03-23T16:31:13;6.10;;;1.95;;
78752;SDS011;68072;51.688;7.842;2023-03-23T16:33:39;2.85;;;1.75;;
78752;SDS011;68072;51.688;7.842;2023-03-23T16:36:05;2.78;;;1.80;;
78752;SDS011;68072;51.688;7.842;2023-03-23T16:38:31;7.28;;;2.22;;
78752;SDS011;68072;51.688;7.842;2023-03-23T16:40:56;2.83;;;1.58;;
78752;SDS011;68072;51.688;7.842;2023-03-23T16:43:22;2.90;;;1.60;;
78752;SDS011;68072;51.688;7.842;2023-03-23T16:45:47;3.63;;;1.67;;
78752;SDS011;68072;51.688;7.842;2023-03-23T16:48:14;4.22;;;1.80;;
78752;SDS011;68072;51.688;7.842;2023-03-23T16:50:41;4.97;;;1.30;;
78752;SDS011;68072;51.688;7.842;2023-03-23T16:53:07;4.65;;;1.58;;
78752;SDS011;68072;51.688;7.842;2023-03-23T16:55:34;3.40;;;2.03;;
78752;SDS011;68072;51.688;7.842;2023-03-23T16:58:00;5.30;;;1.88;;
78752;SDS011;68072;51.688;7.842;2023-03-23T17:00:26;3.15;;;1.50;;
78752;SDS011;68072;51.688;7.842;2023-03-23T17:02:52;5.38;;;1.80;;
78752;SDS011;68072;51.688;7.842;2023-03-23T17:05:22;3.92;;;1.42;;
78752;SDS011;68072;51.688;7.842;2023-03-23T17:07:50;4.75;;;1.88;;
78752;SDS011;68072;51.688;7.842;2023-03-23T17:10:15;3.15;;;1.80;;
78752;SDS011;68072;51.688;7.842;2023-03-23T17:12:41;3.58;;;1.70;;
78752;SDS011;68072;51.688;7.842;2023-03-23T17:15:07;6.72;;;2.22;;
78752;SDS011;68072;51.688;7.842;2023-03-23T17:17:33;4.65;;;2.13;;
78752;SDS011;68072;51.688;7.842;2023-03-23T17:19:59;3.08;;;2.10;;
78752;SDS011;68072;51.688;7.842;2023-03-23T17:22:25;4.90;;;2.47;;
78752;SDS011;68072;51.688;7.842;2023-03-23T17:24:50;4.15;;;2.15;;
78752;SDS011;68072;51.688;7.842;2023-03-23T17:27:17;5.55;;;2.60;;
78752;SDS011;68072;51.688;7.842;2023-03-23T17:29:43;4.97;;;2.20;;
78752;SDS011;68072;51.688;7.842;2023-03-23T17:32:09;3.63;;;2.47;;
78752;SDS011;68072;51.688;7.842;2023-03-23T17:34:35;3.20;;;2.03;;
78752;SDS011;68072;51.688;7.842;2023-03-23T17:37:02;6.55;;;2.90;;
78752;SDS011;68072;51.688;7.842;2023-03-23T17:39:28;3.15;;;1.90;;
78752;SDS011;68072;51.688;7.842;2023-03-23T17:41:53;4.15;;;2.58;;